TAF Text Data
IDs:
Format:
Raw Decoded Include METAR

Data at: 1147 UTC 17 Dec 2018

KSDL 171053Z AUTO 00000KT 10SM CLR 07/M01 A3014 RMK AO2 SLP197 T00721011

KSDL 171120Z 1712/1812 VRB03KT P6SM FEW120 SCT250